sensor_id;sensor_type;location;lat;lon;timestamp;P1;durP1;ratioP1;P2;durP2;ratioP2
66179;SDS011;52986;44.028;20.466;2023-07-29T00:00:22;9.93;;;3.50;;
66179;SDS011;52986;44.028;20.466;2023-07-29T00:02:47;6.95;;;2.80;;
66179;SDS011;52986;44.028;20.466;2023-07-29T00:05:12;6.72;;;3.00;;
66179;SDS011;52986;44.028;20.466;2023-07-29T00:07:38;8.18;;;3.33;;
66179;SDS011;52986;44.028;20.466;2023-07-29T00:10:03;7.40;;;3.20;;
66179;SDS011;52986;44.028;20.466;2023-07-29T00:12:29;7.90;;;3.30;;
66179;SDS011;52986;44.028;20.466;2023-07-29T00:14:54;8.57;;;3.08;;
66179;SDS011;52986;44.028;20.466;2023-07-29T00:17:20;7.88;;;3.20;;
66179;SDS011;52986;44.028;20.466;2023-07-29T00:19:46;8.30;;;3.20;;
66179;SDS011;52986;44.028;20.466;2023-07-29T00:22:12;10.00;;;3.25;;
66179;SDS011;52986;44.028;20.466;2023-07-29T00:24:37;9.25;;;3.33;;
66179;SDS011;52986;44.028;20.466;2023-07-29T00:27:02;7.05;;;3.20;;
66179;SDS011;52986;44.028;20.466;2023-07-29T00:29:28;8.63;;;3.25;;
66179;SDS011;52986;44.028;20.466;2023-07-29T00:31:53;8.55;;;3.42;;
66179;SDS011;52986;44.028;20.466;2023-07-29T00:34:18;9.10;;;3.13;;
66179;SDS011;52986;44.028;20.466;2023-07-29T00:36:45;7.78;;;3.00;;
66179;SDS011;52986;44.028;20.466;2023-07-29T00:39:11;8.90;;;3.30;;
66179;SDS011;52986;44.028;20.466;2023-07-29T00:41:36;7.43;;;3.50;;
66179;SDS011;52986;44.028;20.466;2023-07-29T00:44:02;7.90;;;3.10;;
66179;SDS011;52986;44.028;20.466;2023-07-29T00:46:27;8.88;;;3.13;;
66179;SDS011;52986;44.028;20.466;2023-07-29T00:48:54;7.25;;;3.03;;
66179;SDS011;52986;44.028;20.466;2023-07-29T00:51:20;6.75;;;3.13;;
66179;SDS011;52986;44.028;20.466;2023-07-29T00:53:46;7.10;;;3.30;;
66179;SDS011;52986;44.028;20.466;2023-07-29T00:56:11;7.43;;;3.15;;
66179;SDS011;52986;44.028;20.466;2023-07-29T00:58:37;6.63;;;3.05;;
66179;SDS011;52986;44.028;20.466;2023-07-29T01:01:03;7.88;;;2.97;;
66179;SDS011;52986;44.028;20.466;2023-07-29T01:03:28;7.57;;;3.20;;
66179;SDS011;52986;44.028;20.466;2023-07-29T01:05:58;7.18;;;3.10;;
66179;SDS011;52986;44.028;20.466;2023-07-29T01:08:31;7.60;;;3.33;;
66179;SDS011;52986;44.028;20.466;2023-07-29T01:13:55;7.53;;;3.25;;
66179;SDS011;52986;44.028;20.466;2023-07-29T01:16:29;9.00;;;3.38;;
66179;SDS011;52986;44.028;20.466;2023-07-29T01:18:57;7.68;;;3.15;;
66179;SDS011;52986;44.028;20.466;2023-07-29T01:21:26;9.75;;;3.28;;
66179;SDS011;52986;44.028;20.466;2023-07-29T01:23:52;7.60;;;3.22;;
66179;SDS011;52986;44.028;20.466;2023-07-29T01:26:18;7.55;;;3.17;;
66179;SDS011;52986;44.028;20.466;2023-07-29T01:28:44;8.38;;;3.40;;
66179;SDS011;52986;44.028;20.466;2023-07-29T01:31:13;9.52;;;3.25;;
66179;SDS011;52986;44.028;20.466;2023-07-29T01:33:42;8.15;;;3.10;;
66179;SDS011;52986;44.028;20.466;2023-07-29T01:36:18;9.45;;;3.20;;
66179;SDS011;52986;44.028;20.466;2023-07-29T01:38:48;8.30;;;3.55;;
66179;SDS011;52986;44.028;20.466;2023-07-29T01:41:15;8.15;;;3.20;;
66179;SDS011;52986;44.028;20.466;2023-07-29T01:43:42;10.23;;;3.47;;
66179;SDS011;52986;44.028;20.466;2023-07-29T01:46:09;8.25;;;3.13;;
66179;SDS011;52986;44.028;20.466;2023-07-29T01:48:36;7.38;;;3.38;;
66179;SDS011;52986;44.028;20.466;2023-07-29T01:51:02;9.30;;;3.40;;
66179;SDS011;52986;44.028;20.466;2023-07-29T01:53:27;6.70;;;2.90;;
66179;SDS011;52986;44.028;20.466;2023-07-29T01:55:53;8.23;;;3.25;;
66179;SDS011;52986;44.028;20.466;2023-07-29T01:58:18;8.93;;;3.30;;
66179;SDS011;52986;44.028;20.466;2023-07-29T02:00:44;7.53;;;3.03;;
66179;SDS011;52986;44.028;20.466;2023-07-29T02:03:09;8.10;;;3.10;;
66179;SDS011;52986;44.028;20.466;2023-07-29T02:05:34;7.70;;;3.15;;
66179;SDS011;52986;44.028;20.466;2023-07-29T02:08:00;8.13;;;3.08;;
66179;SDS011;52986;44.028;20.466;2023-07-29T02:10:25;7.22;;;2.90;;
66179;SDS011;52986;44.028;20.466;2023-07-29T02:12:51;9.70;;;3.20;;
66179;SDS011;52986;44.028;20.466;2023-07-29T02:15:16;7.32;;;3.00;;
66179;SDS011;52986;44.028;20.466;2023-07-29T02:17:42;6.78;;;3.00;;
66179;SDS011;52986;44.028;20.466;2023-07-29T02:20:07;7.72;;;3.10;;
66179;SDS011;52986;44.028;20.466;2023-07-29T02:22:33;10.15;;;3.53;;
66179;SDS011;52986;44.028;20.466;2023-07-29T02:24:59;7.95;;;3.13;;
66179;SDS011;52986;44.028;20.466;2023-07-29T02:27:24;11.23;;;3.22;;
66179;SDS011;52986;44.028;20.466;2023-07-29T02:29:52;8.20;;;3.25;;
66179;SDS011;52986;44.028;20.466;2023-07-29T02:32:18;8.23;;;3.05;;
66179;SDS011;52986;44.028;20.466;2023-07-29T02:34:44;7.38;;;2.90;;
66179;SDS011;52986;44.028;20.466;2023-07-29T02:37:09;7.47;;;3.40;;
66179;SDS011;52986;44.028;20.466;2023-07-29T02:39:35;7.38;;;3.10;;
66179;SDS011;52986;44.028;20.466;2023-07-29T02:42:00;7.82;;;3.30;;
66179;SDS011;52986;44.028;20.466;2023-07-29T02:44:25;8.20;;;3.53;;
66179;SDS011;52986;44.028;20.466;2023-07-29T02:46:51;13.88;;;3.28;;
66179;SDS011;52986;44.028;20.466;2023-07-29T02:49:17;7.25;;;3.47;;
66179;SDS011;52986;44.028;20.466;2023-07-29T02:51:42;8.40;;;3.60;;
66179;SDS011;52986;44.028;20.466;2023-07-29T02:54:08;9.10;;;3.22;;
66179;SDS011;52986;44.028;20.466;2023-07-29T02:56:33;8.45;;;3.15;;
66179;SDS011;52986;44.028;20.466;2023-07-29T02:58:58;11.07;;;3.42;;
66179;SDS011;52986;44.028;20.466;2023-07-29T03:01:25;7.78;;;3.28;;
66179;SDS011;52986;44.028;20.466;2023-07-29T03:03:50;8.00;;;3.10;;
66179;SDS011;52986;44.028;20.466;2023-07-29T03:06:16;8.75;;;3.78;;
66179;SDS011;52986;44.028;20.466;2023-07-29T03:08:41;7.80;;;3.35;;
66179;SDS011;52986;44.028;20.466;2023-07-29T03:11:08;6.88;;;3.15;;
66179;SDS011;52986;44.028;20.466;2023-07-29T03:13:36;9.38;;;3.53;;
66179;SDS011;52986;44.028;20.466;2023-07-29T03:16:05;7.65;;;3.13;;
66179;SDS011;52986;44.028;20.466;2023-07-29T03:18:31;10.50;;;3.72;;
66179;SDS011;52986;44.028;20.466;2023-07-29T03:20:57;8.70;;;3.50;;
66179;SDS011;52986;44.028;20.466;2023-07-29T03:23:22;6.78;;;3.05;;
66179;SDS011;52986;44.028;20.466;2023-07-29T03:25:48;7.55;;;3.30;;
66179;SDS011;52986;44.028;20.466;2023-07-29T03:28:16;10.57;;;3.35;;
66179;SDS011;52986;44.028;20.466;2023-07-29T03:30:41;7.57;;;3.15;;
66179;SDS011;52986;44.028;20.466;2023-07-29T03:33:07;8.40;;;3.47;;
66179;SDS011;52986;44.028;20.466;2023-07-29T03:35:32;10.73;;;3.70;;
66179;SDS011;52986;44.028;20.466;2023-07-29T03:37:58;9.35;;;3.60;;
66179;SDS011;52986;44.028;20.466;2023-07-29T03:40:23;8.23;;;3.50;;
66179;SDS011;52986;44.028;20.466;2023-07-29T03:42:48;7.88;;;3.38;;
66179;SDS011;52986;44.028;20.466;2023-07-29T03:45:15;8.90;;;3.47;;
66179;SDS011;52986;44.028;20.466;2023-07-29T03:47:41;9.55;;;3.33;;
66179;SDS011;52986;44.028;20.466;2023-07-29T03:50:06;12.27;;;3.80;;
66179;SDS011;52986;44.028;20.466;2023-07-29T03:52:32;8.80;;;3.40;;
66179;SDS011;52986;44.028;20.466;2023-07-29T03:54:57;8.43;;;3.30;;
66179;SDS011;52986;44.028;20.466;2023-07-29T03:57:22;8.35;;;3.45;;
66179;SDS011;52986;44.028;20.466;2023-07-29T03:59:48;11.90;;;4.90;;
66179;SDS011;52986;44.028;20.466;2023-07-29T04:02:13;7.78;;;3.20;;
66179;SDS011;52986;44.028;20.466;2023-07-29T04:04:39;9.95;;;3.35;;
66179;SDS011;52986;44.028;20.466;2023-07-29T04:07:06;9.48;;;3.30;;
66179;SDS011;52986;44.028;20.466;2023-07-29T04:09:32;9.38;;;3.72;;
66179;SDS011;52986;44.028;20.466;2023-07-29T04:11:57;7.68;;;3.15;;
66179;SDS011;52986;44.028;20.466;2023-07-29T04:14:23;8.10;;;3.30;;
66179;SDS011;52986;44.028;20.466;2023-07-29T04:16:48;8.02;;;3.20;;
66179;SDS011;52986;44.028;20.466;2023-07-29T04:19:14;8.50;;;3.55;;
66179;SDS011;52986;44.028;20.466;2023-07-29T04:21:39;8.82;;;3.47;;
66179;SDS011;52986;44.028;20.466;2023-07-29T04:24:05;9.20;;;3.42;;
66179;SDS011;52986;44.028;20.466;2023-07-29T04:26:30;10.35;;;3.90;;
66179;SDS011;52986;44.028;20.466;2023-07-29T04:28:55;9.37;;;3.50;;
66179;SDS011;52986;44.028;20.466;2023-07-29T04:31:21;9.52;;;3.53;;
66179;SDS011;52986;44.028;20.466;2023-07-29T04:33:46;9.98;;;3.90;;
66179;SDS011;52986;44.028;20.466;2023-07-29T04:36:12;8.73;;;3.75;;
66179;SDS011;52986;44.028;20.466;2023-07-29T04:38:37;8.82;;;4.10;;
66179;SDS011;52986;44.028;20.466;2023-07-29T04:41:02;10.43;;;4.47;;
66179;SDS011;52986;44.028;20.466;2023-07-29T04:43:30;8.70;;;3.92;;
66179;SDS011;52986;44.028;20.466;2023-07-29T04:45:56;9.50;;;3.83;;
66179;SDS011;52986;44.028;20.466;2023-07-29T04:48:21;11.32;;;3.80;;
66179;SDS011;52986;44.028;20.466;2023-07-29T04:50:47;10.63;;;3.60;;
66179;SDS011;52986;44.028;20.466;2023-07-29T04:53:12;9.48;;;3.60;;
66179;SDS011;52986;44.028;20.466;2023-07-29T04:55:38;8.88;;;3.55;;
66179;SDS011;52986;44.028;20.466;2023-07-29T04:58:03;9.90;;;3.65;;
66179;SDS011;52986;44.028;20.466;2023-07-29T05:00:28;9.68;;;4.18;;
66179;SDS011;52986;44.028;20.466;2023-07-29T05:02:54;11.20;;;3.60;;
66179;SDS011;52986;44.028;20.466;2023-07-29T05:05:19;8.88;;;3.80;;
66179;SDS011;52986;44.028;20.466;2023-07-29T05:07:45;10.13;;;4.03;;
66179;SDS011;52986;44.028;20.466;2023-07-29T05:10:10;8.75;;;4.05;;
66179;SDS011;52986;44.028;20.466;2023-07-29T05:12:36;9.10;;;3.97;;
66179;SDS011;52986;44.028;20.466;2023-07-29T05:15:01;10.35;;;4.20;;
66179;SDS011;52986;44.028;20.466;2023-07-29T05:17:27;9.48;;;3.70;;
66179;SDS011;52986;44.028;20.466;2023-07-29T05:19:53;8.85;;;3.85;;
66179;SDS011;52986;44.028;20.466;2023-07-29T05:22:18;8.65;;;3.90;;
66179;SDS011;52986;44.028;20.466;2023-07-29T05:24:44;8.80;;;3.75;;
66179;SDS011;52986;44.028;20.466;2023-07-29T05:27:09;9.23;;;4.05;;
66179;SDS011;52986;44.028;20.466;2023-07-29T05:29:34;8.55;;;3.80;;
66179;SDS011;52986;44.028;20.466;2023-07-29T05:32:00;9.23;;;3.92;;
66179;SDS011;52986;44.028;20.466;2023-07-29T05:34:26;9.95;;;4.15;;
66179;SDS011;52986;44.028;20.466;2023-07-29T05:36:51;9.57;;;3.75;;
66179;SDS011;52986;44.028;20.466;2023-07-29T05:39:16;9.07;;;3.90;;
66179;SDS011;52986;44.028;20.466;2023-07-29T05:41:42;10.75;;;4.10;;
66179;SDS011;52986;44.028;20.466;2023-07-29T05:44:07;9.85;;;3.78;;
66179;SDS011;52986;44.028;20.466;2023-07-29T05:46:33;8.52;;;3.70;;
66179;SDS011;52986;44.028;20.466;2023-07-29T05:48:58;9.27;;;4.00;;
66179;SDS011;52986;44.028;20.466;2023-07-29T05:51:23;9.80;;;4.20;;
66179;SDS011;52986;44.028;20.466;2023-07-29T05:53:49;10.63;;;3.83;;
66179;SDS011;52986;44.028;20.466;2023-07-29T05:56:14;11.48;;;3.97;;
66179;SDS011;52986;44.028;20.466;2023-07-29T05:58:39;8.35;;;3.60;;
66179;SDS011;52986;44.028;20.466;2023-07-29T06:01:05;8.77;;;3.72;;
66179;SDS011;52986;44.028;20.466;2023-07-29T06:03:30;10.23;;;4.20;;
66179;SDS011;52986;44.028;20.466;2023-07-29T06:05:55;9.50;;;4.00;;
66179;SDS011;52986;44.028;20.466;2023-07-29T06:08:21;11.63;;;4.00;;
66179;SDS011;52986;44.028;20.466;2023-07-29T06:10:46;10.68;;;4.07;;
66179;SDS011;52986;44.028;20.466;2023-07-29T06:13:11;11.40;;;4.40;;
66179;SDS011;52986;44.028;20.466;2023-07-29T06:15:37;10.48;;;4.32;;
66179;SDS011;52986;44.028;20.466;2023-07-29T06:18:02;10.50;;;4.15;;
66179;SDS011;52986;44.028;20.466;2023-07-29T06:20:28;10.15;;;4.20;;
66179;SDS011;52986;44.028;20.466;2023-07-29T06:22:53;11.15;;;4.20;;
66179;SDS011;52986;44.028;20.466;2023-07-29T06:25:19;8.82;;;4.25;;
66179;SDS011;52986;44.028;20.466;2023-07-29T06:27:44;12.00;;;4.30;;
66179;SDS011;52986;44.028;20.466;2023-07-29T06:30:10;11.15;;;4.22;;
66179;SDS011;52986;44.028;20.466;2023-07-29T06:32:35;11.25;;;3.97;;
66179;SDS011;52986;44.028;20.466;2023-07-29T06:35:01;11.95;;;3.70;;
66179;SDS011;52986;44.028;20.466;2023-07-29T06:37:26;9.45;;;4.05;;
66179;SDS011;52986;44.028;20.466;2023-07-29T06:39:52;10.05;;;3.90;;
66179;SDS011;52986;44.028;20.466;2023-07-29T06:42:17;10.02;;;4.50;;
66179;SDS011;52986;44.028;20.466;2023-07-29T06:44:43;10.15;;;4.22;;
66179;SDS011;52986;44.028;20.466;2023-07-29T06:47:10;12.82;;;4.43;;
66179;SDS011;52986;44.028;20.466;2023-07-29T06:49:36;10.40;;;5.30;;
66179;SDS011;52986;44.028;20.466;2023-07-29T06:52:01;9.65;;;4.30;;
66179;SDS011;52986;44.028;20.466;2023-07-29T06:54:27;7.88;;;3.67;;
66179;SDS011;52986;44.028;20.466;2023-07-29T06:56:52;9.68;;;4.18;;
66179;SDS011;52986;44.028;20.466;2023-07-29T06:59:17;9.48;;;3.70;;
66179;SDS011;52986;44.028;20.466;2023-07-29T07:01:43;8.00;;;3.92;;
66179;SDS011;52986;44.028;20.466;2023-07-29T07:04:08;8.90;;;4.05;;
66179;SDS011;52986;44.028;20.466;2023-07-29T07:06:34;9.15;;;3.90;;
66179;SDS011;52986;44.028;20.466;2023-07-29T07:08:59;8.70;;;4.00;;
66179;SDS011;52986;44.028;20.466;2023-07-29T07:11:25;8.65;;;4.18;;
66179;SDS011;52986;44.028;20.466;2023-07-29T07:13:50;9.98;;;4.10;;
66179;SDS011;52986;44.028;20.466;2023-07-29T07:16:16;9.00;;;3.88;;
66179;SDS011;52986;44.028;20.466;2023-07-29T07:18:41;10.88;;;3.72;;
66179;SDS011;52986;44.028;20.466;2023-07-29T07:21:06;9.10;;;3.83;;
66179;SDS011;52986;44.028;20.466;2023-07-29T07:23:32;10.23;;;4.05;;
66179;SDS011;52986;44.028;20.466;2023-07-29T07:25:57;8.63;;;3.83;;
66179;SDS011;52986;44.028;20.466;2023-07-29T07:28:23;8.93;;;4.20;;
66179;SDS011;52986;44.028;20.466;2023-07-29T07:30:48;9.30;;;3.90;;
66179;SDS011;52986;44.028;20.466;2023-07-29T07:33:13;9.23;;;3.90;;
66179;SDS011;52986;44.028;20.466;2023-07-29T07:35:39;9.40;;;4.32;;
66179;SDS011;52986;44.028;20.466;2023-07-29T07:38:04;10.73;;;4.38;;
66179;SDS011;52986;44.028;20.466;2023-07-29T07:40:32;9.38;;;4.57;;
66179;SDS011;52986;44.028;20.466;2023-07-29T07:42:58;8.32;;;3.85;;
66179;SDS011;52986;44.028;20.466;2023-07-29T07:45:23;7.07;;;3.40;;
66179;SDS011;52986;44.028;20.466;2023-07-29T07:47:48;8.32;;;3.78;;
66179;SDS011;52986;44.028;20.466;2023-07-29T07:50:14;10.05;;;3.53;;
66179;SDS011;52986;44.028;20.466;2023-07-29T07:52:39;7.72;;;3.40;;
66179;SDS011;52986;44.028;20.466;2023-07-29T07:55:05;10.18;;;3.67;;
66179;SDS011;52986;44.028;20.466;2023-07-29T07:57:31;7.88;;;3.78;;
66179;SDS011;52986;44.028;20.466;2023-07-29T07:59:56;7.93;;;3.70;;
66179;SDS011;52986;44.028;20.466;2023-07-29T08:02:21;7.55;;;3.30;;
66179;SDS011;52986;44.028;20.466;2023-07-29T08:04:47;10.63;;;3.72;;
66179;SDS011;52986;44.028;20.466;2023-07-29T08:07:13;9.63;;;3.30;;
66179;SDS011;52986;44.028;20.466;2023-07-29T08:09:39;8.80;;;3.40;;
66179;SDS011;52986;44.028;20.466;2023-07-29T08:12:04;8.75;;;3.40;;
66179;SDS011;52986;44.028;20.466;2023-07-29T08:14:30;6.60;;;3.08;;
66179;SDS011;52986;44.028;20.466;2023-07-29T08:16:55;7.83;;;3.13;;
66179;SDS011;52986;44.028;20.466;2023-07-29T08:19:20;8.00;;;3.25;;
66179;SDS011;52986;44.028;20.466;2023-07-29T08:21:46;8.25;;;3.13;;
66179;SDS011;52986;44.028;20.466;2023-07-29T08:24:11;8.43;;;3.30;;
66179;SDS011;52986;44.028;20.466;2023-07-29T08:26:37;9.70;;;3.47;;
66179;SDS011;52986;44.028;20.466;2023-07-29T08:29:02;37.53;;;4.77;;
66179;SDS011;52986;44.028;20.466;2023-07-29T08:31:27;46.50;;;6.15;;
66179;SDS011;52986;44.028;20.466;2023-07-29T08:33:53;11.70;;;3.65;;
66179;SDS011;52986;44.028;20.466;2023-07-29T08:36:18;8.55;;;3.55;;
66179;SDS011;52986;44.028;20.466;2023-07-29T08:38:43;7.53;;;3.65;;
66179;SDS011;52986;44.028;20.466;2023-07-29T08:41:24;8.53;;;3.63;;
66179;SDS011;52986;44.028;20.466;2023-07-29T08:43:54;10.00;;;3.60;;
66179;SDS011;52986;44.028;20.466;2023-07-29T08:46:32;7.90;;;3.50;;
66179;SDS011;52986;44.028;20.466;2023-07-29T08:48:58;9.43;;;4.00;;
66179;SDS011;52986;44.028;20.466;2023-07-29T08:51:24;8.38;;;3.45;;
66179;SDS011;52986;44.028;20.466;2023-07-29T08:53:50;8.73;;;3.70;;
66179;SDS011;52986;44.028;20.466;2023-07-29T08:56:16;10.18;;;3.85;;
66179;SDS011;52986;44.028;20.466;2023-07-29T08:58:42;9.70;;;3.95;;
66179;SDS011;52986;44.028;20.466;2023-07-29T09:01:08;8.02;;;3.70;;
66179;SDS011;52986;44.028;20.466;2023-07-29T09:03:33;10.07;;;3.92;;
66179;SDS011;52986;44.028;20.466;2023-07-29T09:05:59;9.32;;;3.92;;
66179;SDS011;52986;44.028;20.466;2023-07-29T09:08:26;14.57;;;4.50;;
66179;SDS011;52986;44.028;20.466;2023-07-29T09:10:53;9.75;;;4.05;;
66179;SDS011;52986;44.028;20.466;2023-07-29T09:13:19;8.45;;;3.80;;
66179;SDS011;52986;44.028;20.466;2023-07-29T09:15:45;9.45;;;4.10;;
66179;SDS011;52986;44.028;20.466;2023-07-29T09:18:12;6.85;;;3.40;;
66179;SDS011;52986;44.028;20.466;2023-07-29T09:20:40;7.25;;;3.70;;
66179;SDS011;52986;44.028;20.466;2023-07-29T09:23:10;8.45;;;4.43;;
66179;SDS011;52986;44.028;20.466;2023-07-29T09:25:35;8.45;;;4.38;;
66179;SDS011;52986;44.028;20.466;2023-07-29T09:28:02;7.63;;;4.15;;
66179;SDS011;52986;44.028;20.466;2023-07-29T09:30:39;8.48;;;3.65;;
66179;SDS011;52986;44.028;20.466;2023-07-29T09:33:06;8.07;;;3.70;;
66179;SDS011;52986;44.028;20.466;2023-07-29T09:35:35;7.97;;;3.95;;
66179;SDS011;52986;44.028;20.466;2023-07-29T09:38:02;10.40;;;4.00;;
66179;SDS011;52986;44.028;20.466;2023-07-29T09:40:33;9.43;;;3.60;;
66179;SDS011;52986;44.028;20.466;2023-07-29T09:43:00;6.68;;;3.80;;
66179;SDS011;52986;44.028;20.466;2023-07-29T09:45:26;7.33;;;4.13;;
66179;SDS011;52986;44.028;20.466;2023-07-29T09:47:52;7.93;;;4.05;;
66179;SDS011;52986;44.028;20.466;2023-07-29T09:50:18;10.48;;;4.70;;
66179;SDS011;52986;44.028;20.466;2023-07-29T09:52:44;8.80;;;5.35;;
66179;SDS011;52986;44.028;20.466;2023-07-29T09:55:11;8.45;;;4.38;;
66179;SDS011;52986;44.028;20.466;2023-07-29T09:57:38;8.40;;;4.13;;
66179;SDS011;52986;44.028;20.466;2023-07-29T10:00:05;7.82;;;3.97;;
66179;SDS011;52986;44.028;20.466;2023-07-29T10:02:36;8.90;;;4.13;;
66179;SDS011;52986;44.028;20.466;2023-07-29T10:05:05;9.13;;;4.30;;
66179;SDS011;52986;44.028;20.466;2023-07-29T10:07:33;8.90;;;3.95;;
66179;SDS011;52986;44.028;20.466;2023-07-29T10:09:59;8.73;;;4.30;;
66179;SDS011;52986;44.028;20.466;2023-07-29T10:12:28;8.18;;;4.32;;
66179;SDS011;52986;44.028;20.466;2023-07-29T10:14:55;9.25;;;4.10;;
66179;SDS011;52986;44.028;20.466;2023-07-29T10:17:24;7.97;;;4.13;;
66179;SDS011;52986;44.028;20.466;2023-07-29T10:19:51;8.10;;;4.18;;
66179;SDS011;52986;44.028;20.466;2023-07-29T10:22:18;8.05;;;4.35;;
66179;SDS011;52986;44.028;20.466;2023-07-29T10:24:45;8.27;;;4.55;;
66179;SDS011;52986;44.028;20.466;2023-07-29T10:27:14;8.07;;;4.40;;
66179;SDS011;52986;44.028;20.466;2023-07-29T10:29:43;9.18;;;4.32;;
66179;SDS011;52986;44.028;20.466;2023-07-29T10:32:09;9.52;;;4.70;;
66179;SDS011;52986;44.028;20.466;2023-07-29T10:34:36;8.38;;;4.45;;
66179;SDS011;52986;44.028;20.466;2023-07-29T10:37:03;7.65;;;4.32;;
66179;SDS011;52986;44.028;20.466;2023-07-29T10:39:37;9.27;;;4.40;;
66179;SDS011;52986;44.028;20.466;2023-07-29T10:42:05;9.05;;;4.40;;
66179;SDS011;52986;44.028;20.466;2023-07-29T10:47:13;9.52;;;4.65;;
66179;SDS011;52986;44.028;20.466;2023-07-29T10:49:53;9.77;;;5.03;;
66179;SDS011;52986;44.028;20.466;2023-07-29T10:55:00;15.20;;;5.25;;
66179;SDS011;52986;44.028;20.466;2023-07-29T10:57:38;10.00;;;4.78;;
66179;SDS011;52986;44.028;20.466;2023-07-29T11:00:06;9.20;;;4.30;;
66179;SDS011;52986;44.028;20.466;2023-07-29T11:02:34;10.30;;;4.57;;
66179;SDS011;52986;44.028;20.466;2023-07-29T11:05:05;9.13;;;5.10;;
66179;SDS011;52986;44.028;20.466;2023-07-29T11:07:32;9.48;;;4.90;;
66179;SDS011;52986;44.028;20.466;2023-07-29T11:10:14;9.65;;;5.57;;
66179;SDS011;52986;44.028;20.466;2023-07-29T11:12:50;9.27;;;4.35;;
66179;SDS011;52986;44.028;20.466;2023-07-29T11:17:50;10.52;;;4.22;;
66179;SDS011;52986;44.028;20.466;2023-07-29T11:20:17;9.52;;;4.70;;
66179;SDS011;52986;44.028;20.466;2023-07-29T11:22:44;8.57;;;4.63;;
66179;SDS011;52986;44.028;20.466;2023-07-29T11:25:10;8.77;;;4.55;;
66179;SDS011;52986;44.028;20.466;2023-07-29T11:27:38;9.68;;;4.43;;
66179;SDS011;52986;44.028;20.466;2023-07-29T11:30:04;9.85;;;4.28;;
66179;SDS011;52986;44.028;20.466;2023-07-29T11:32:31;8.07;;;4.22;;
66179;SDS011;52986;44.028;20.466;2023-07-29T11:35:02;9.88;;;4.43;;
66179;SDS011;52986;44.028;20.466;2023-07-29T11:39:53;8.67;;;4.73;;
66179;SDS011;52986;44.028;20.466;2023-07-29T11:42:19;9.63;;;4.88;;
66179;SDS011;52986;44.028;20.466;2023-07-29T11:44:45;9.93;;;4.85;;
66179;SDS011;52986;44.028;20.466;2023-07-29T11:47:11;10.32;;;4.75;;
66179;SDS011;52986;44.028;20.466;2023-07-29T11:49:40;9.25;;;4.72;;
66179;SDS011;52986;44.028;20.466;2023-07-29T11:52:07;9.77;;;4.50;;
66179;SDS011;52986;44.028;20.466;2023-07-29T11:54:35;8.40;;;4.70;;
66179;SDS011;52986;44.028;20.466;2023-07-29T11:57:05;8.25;;;4.40;;
66179;SDS011;52986;44.028;20.466;2023-07-29T11:59:33;7.90;;;4.40;;
66179;SDS011;52986;44.028;20.466;2023-07-29T12:02:00;9.27;;;4.40;;
66179;SDS011;52986;44.028;20.466;2023-07-29T12:04:27;8.07;;;4.40;;
66179;SDS011;52986;44.028;20.466;2023-07-29T12:06:53;9.02;;;4.80;;
66179;SDS011;52986;44.028;20.466;2023-07-29T12:09:20;9.35;;;4.85;;
66179;SDS011;52986;44.028;20.466;2023-07-29T12:11:45;12.07;;;5.60;;
66179;SDS011;52986;44.028;20.466;2023-07-29T12:14:11;9.57;;;4.53;;
66179;SDS011;52986;44.028;20.466;2023-07-29T12:16:40;9.67;;;5.47;;
66179;SDS011;52986;44.028;20.466;2023-07-29T12:19:11;9.00;;;4.90;;
66179;SDS011;52986;44.028;20.466;2023-07-29T12:21:38;8.98;;;4.40;;
66179;SDS011;52986;44.028;20.466;2023-07-29T12:24:05;9.35;;;5.10;;
66179;SDS011;52986;44.028;20.466;2023-07-29T12:26:30;9.40;;;5.38;;
66179;SDS011;52986;44.028;20.466;2023-07-29T12:28:56;9.63;;;5.63;;
66179;SDS011;52986;44.028;20.466;2023-07-29T12:31:22;9.75;;;5.68;;
66179;SDS011;52986;44.028;20.466;2023-07-29T12:33:56;9.25;;;5.30;;
66179;SDS011;52986;44.028;20.466;2023-07-29T12:36:22;10.27;;;5.32;;
66179;SDS011;52986;44.028;20.466;2023-07-29T12:38:47;10.68;;;6.00;;
66179;SDS011;52986;44.028;20.466;2023-07-29T12:41:12;9.80;;;5.43;;
66179;SDS011;52986;44.028;20.466;2023-07-29T12:43:38;7.95;;;4.50;;
66179;SDS011;52986;44.028;20.466;2023-07-29T12:46:03;8.73;;;5.03;;
66179;SDS011;52986;44.028;20.466;2023-07-29T12:48:28;10.55;;;5.30;;
66179;SDS011;52986;44.028;20.466;2023-07-29T12:50:54;10.48;;;4.97;;
66179;SDS011;52986;44.028;20.466;2023-07-29T12:53:19;9.43;;;5.68;;
66179;SDS011;52986;44.028;20.466;2023-07-29T12:55:45;11.52;;;6.80;;
66179;SDS011;52986;44.028;20.466;2023-07-29T12:58:10;11.40;;;6.75;;
66179;SDS011;52986;44.028;20.466;2023-07-29T13:00:35;10.55;;;5.97;;
66179;SDS011;52986;44.028;20.466;2023-07-29T13:03:01;9.57;;;5.22;;
66179;SDS011;52986;44.028;20.466;2023-07-29T13:05:26;10.70;;;5.75;;
66179;SDS011;52986;44.028;20.466;2023-07-29T13:07:51;11.32;;;5.93;;
66179;SDS011;52986;44.028;20.466;2023-07-29T13:10:17;11.45;;;6.68;;
66179;SDS011;52986;44.028;20.466;2023-07-29T13:12:42;11.60;;;6.95;;
66179;SDS011;52986;44.028;20.466;2023-07-29T13:15:07;11.98;;;7.45;;
66179;SDS011;52986;44.028;20.466;2023-07-29T13:17:33;12.10;;;6.90;;
66179;SDS011;52986;44.028;20.466;2023-07-29T13:19:59;12.02;;;6.57;;
66179;SDS011;52986;44.028;20.466;2023-07-29T13:22:24;12.75;;;6.97;;
66179;SDS011;52986;44.028;20.466;2023-07-29T13:24:50;12.98;;;5.93;;
66179;SDS011;52986;44.028;20.466;2023-07-29T13:27:15;11.95;;;6.57;;
66179;SDS011;52986;44.028;20.466;2023-07-29T13:29:41;12.50;;;6.70;;
66179;SDS011;52986;44.028;20.466;2023-07-29T13:32:06;10.65;;;5.90;;
66179;SDS011;52986;44.028;20.466;2023-07-29T13:34:32;11.07;;;6.43;;
66179;SDS011;52986;44.028;20.466;2023-07-29T13:36:59;11.77;;;6.30;;
66179;SDS011;52986;44.028;20.466;2023-07-29T13:39:25;11.55;;;6.97;;
66179;SDS011;52986;44.028;20.466;2023-07-29T13:41:50;12.00;;;7.28;;
66179;SDS011;52986;44.028;20.466;2023-07-29T13:44:15;10.77;;;5.68;;
66179;SDS011;52986;44.028;20.466;2023-07-29T13:46:41;11.65;;;6.32;;
66179;SDS011;52986;44.028;20.466;2023-07-29T13:49:06;9.68;;;5.57;;
66179;SDS011;52986;44.028;20.466;2023-07-29T13:51:31;10.43;;;5.97;;
66179;SDS011;52986;44.028;20.466;2023-07-29T13:53:57;10.63;;;5.38;;
66179;SDS011;52986;44.028;20.466;2023-07-29T13:56:22;10.85;;;5.70;;
66179;SDS011;52986;44.028;20.466;2023-07-29T13:58:48;10.15;;;5.70;;
66179;SDS011;52986;44.028;20.466;2023-07-29T14:01:13;13.68;;;6.00;;
66179;SDS011;52986;44.028;20.466;2023-07-29T14:03:39;11.70;;;6.00;;
66179;SDS011;52986;44.028;20.466;2023-07-29T14:06:04;9.38;;;5.40;;
66179;SDS011;52986;44.028;20.466;2023-07-29T14:08:29;9.15;;;5.60;;
66179;SDS011;52986;44.028;20.466;2023-07-29T14:10:55;10.55;;;6.13;;
66179;SDS011;52986;44.028;20.466;2023-07-29T14:13:20;10.85;;;6.20;;
66179;SDS011;52986;44.028;20.466;2023-07-29T14:15:46;10.45;;;5.88;;
66179;SDS011;52986;44.028;20.466;2023-07-29T14:18:11;9.90;;;5.65;;
66179;SDS011;52986;44.028;20.466;2023-07-29T14:20:36;10.57;;;5.93;;
66179;SDS011;52986;44.028;20.466;2023-07-29T14:23:02;11.20;;;6.53;;
66179;SDS011;52986;44.028;20.466;2023-07-29T14:25:27;11.93;;;6.40;;
66179;SDS011;52986;44.028;20.466;2023-07-29T14:27:53;12.55;;;6.40;;
66179;SDS011;52986;44.028;20.466;2023-07-29T14:30:18;12.35;;;6.38;;
66179;SDS011;52986;44.028;20.466;2023-07-29T14:32:43;10.02;;;6.15;;
66179;SDS011;52986;44.028;20.466;2023-07-29T14:35:09;11.98;;;6.10;;
66179;SDS011;52986;44.028;20.466;2023-07-29T14:37:34;10.95;;;6.00;;